Overview Statistics Trail Chart Weather Telemetry Raw packets
 

This is the latest recevied weather packets stored in our database for station/object DN9CHO-13. If no packets are shown the sender has not sent any weather packets the latest 10 day(s).

<< 37 38 39 40 41 42 43 >>
Time Temp. Humidity Pressure Rain* Wind** Luminosity Snow
1788013529 22.22° C 66% 1013.8 hPa 0 mm - 10 W/m² -
1788012926 22.22° C 63% 1013.9 hPa 0 mm - 8 W/m² -
1788012322 22.78° C 61% 1013.8 hPa 0 mm - 9 W/m² -
1788011718 22.78° C 60% 1014 hPa 0 mm - 6 W/m² -
1788011135 23.33° C 59% 1013.9 hPa 0 mm - 11 W/m² -
1788010531 23.33° C 58% 1013.8 hPa 0 mm - 11 W/m² -
1788009928 23.33° C 58% 1013.9 hPa 0 mm - 16 W/m² -
1788009324 23.33° C 58% 1013.8 hPa 0 mm - 14 W/m² -
1788008721 23.33° C 57% 1013.8 hPa 0 mm - 23 W/m² -
1788008117 23.89° C 57% 1013.8 hPa 0 mm - 26 W/m² -
1788007533 23.89° C 57% 1013.8 hPa 0 mm - 22 W/m² -
1788006930 23.89° C 56% 1013.9 hPa 0 mm - 22 W/m² -
1788006326 23.33° C 58% 1014 hPa 0 mm - 14 W/m² -
1788005723 23.89° C 57% 1014 hPa 0 mm - 16 W/m² -
1788005119 23.89° C 56% 1014 hPa 0 mm - 29 W/m² -
1788004515 23.89° C 57% 1014.2 hPa 0 mm - 18 W/m² -
1788003932 23.33° C 58% 1014.3 hPa 0 mm - 38 W/m² -
1788003328 24.44° C 56% 1014.5 hPa 0 mm - 18 W/m² -
1788002724 25° C 55% 1014.7 hPa 0 mm - 316 W/m² -
1788002121 23.33° C 59% 1014.8 hPa 0 mm - 446 W/m² -
1788001517 22.78° C 60% 1014.7 hPa 0 mm - 64 W/m² -
1788000934 22.22° C 62% 1014.8 hPa 0 mm - 90 W/m² -
1788000330 22.22° C 62% 1015 hPa 0 mm - 39 W/m² -
1787999726 22.22° C 62% 1014.9 hPa 0 mm - 31 W/m² -
1787999123 21.67° C 64% 1015.1 hPa 0 mm - 21 W/m² -

* Rain latest hour (hover to see other rain measurements)
** Current wind speed in m/s (hover to see current wind gust speed)